createdAt,value
2019-03-21T00:02:00.141Z,98478.05
2019-03-21T00:06:02.347Z,98483.02
2019-03-21T00:10:31.561Z,98396.13
2019-03-21T00:14:59.395Z,98477.63
2019-03-21T00:19:01.443Z,98470.18
2019-03-21T00:23:03.370Z,98481.43
2019-03-21T00:27:05.507Z,98482.27
2019-03-21T00:31:07.422Z,98482.17
2019-03-21T00:35:11.313Z,98480.27
2019-03-21T00:39:13.227Z,98464.55
2019-03-21T00:43:15.311Z,98480.63
2019-03-21T00:47:18.169Z,98483.14
2019-03-21T00:51:20.083Z,98475.33
2019-03-21T00:55:22.908Z,98473.92
2019-03-21T00:59:24.848Z,98480.20
2019-03-21T01:03:27.868Z,98479.83
2019-03-21T01:07:29.775Z,98479.26
2019-03-21T01:11:31.695Z,98479.96
2019-03-21T01:15:33.610Z,98474.42
2019-03-21T01:19:35.513Z,98479.98
2019-03-21T01:23:38.493Z,98479.75
2019-03-21T01:27:41.124Z,98478.69
2019-03-21T01:31:43.019Z,98474.56
2019-03-21T01:35:45.132Z,98471.48
2019-03-21T01:39:47.029Z,98467.48
2019-03-21T01:43:49.215Z,98469.95
2019-03-21T01:47:53.126Z,98465.47
2019-03-21T01:51:55.062Z,98471.36
2019-03-21T01:55:56.984Z,98470.06
2019-03-21T01:59:58.895Z,98466.05
2019-03-21T02:04:00.814Z,98456.14
2019-03-21T02:08:02.722Z,98454.47
2019-03-21T02:12:04.698Z,98454.47
2019-03-21T02:16:06.772Z,98445.97
2019-03-21T02:20:18.420Z,98450.33
2019-03-21T02:24:20.334Z,98450.46
2019-03-21T02:28:22.231Z,98452.47
2019-03-21T02:32:24.141Z,98448.69
2019-03-21T02:36:26.050Z,98444.44
2019-03-21T02:40:28.143Z,98441.81
2019-03-21T02:44:30.043Z,98432.86
2019-03-21T02:48:31.972Z,98432.63
2019-03-21T02:52:33.881Z,98430.02
2019-03-21T02:56:35.935Z,98432.38
2019-03-21T03:00:42.740Z,98426.23
2019-03-21T03:04:44.649Z,98422.92
2019-03-21T03:08:46.566Z,98416.42
2019-03-21T03:12:48.482Z,98418.80
2019-03-21T03:16:50.396Z,98413.83
2019-03-21T03:20:53.383Z,98410.15
2019-03-21T03:24:55.279Z,98407.09
2019-03-21T03:28:57.189Z,98408.14
2019-03-21T03:33:00.237Z,98401.42
2019-03-21T03:37:02.204Z,98413.23
2019-03-21T03:41:15.809Z,98420.31
2019-03-21T03:45:37.385Z,98427.39
2019-03-21T03:49:31.643Z,98439.19
2019-03-21T03:53:33.675Z,98438.58
2019-03-21T03:57:35.747Z,98437.03
2019-03-21T04:01:37.721Z,98436.41
2019-03-21T04:05:40.873Z,98442.56
2019-03-21T04:09:42.782Z,98441.02
2019-03-21T04:13:44.707Z,98446.09
2019-03-21T04:17:46.635Z,98446.46
2019-03-21T04:21:48.545Z,98446.46
2019-03-21T04:26:07.168Z,98449.06
2019-03-21T04:30:13.647Z,98447.14
2019-03-21T04:34:15.571Z,98444.30
2019-03-21T04:38:17.530Z,98451.84
2019-03-21T04:42:19.434Z,98451.72
2019-03-21T04:46:21.348Z,98451.34
2019-03-21T04:50:41.050Z,98444.05
2019-03-21T04:54:42.973Z,98443.34
2019-03-21T04:58:44.878Z,98447.45
2019-03-21T05:02:46.862Z,98445.56
2019-03-21T05:06:48.766Z,98448.63
2019-03-21T05:10:50.752Z,98452.86
2019-03-21T05:14:52.669Z,98450.97
2019-03-21T05:19:00.062Z,98457.30
2019-03-21T05:23:02.493Z,98458.26
2019-03-21T05:27:04.405Z,98460.39
2019-03-21T05:31:28.933Z,98458.50
2019-03-21T05:35:30.884Z,98464.78
2019-03-21T05:39:32.788Z,98465.33
2019-03-21T05:43:48.634Z,98467.59
2019-03-21T05:47:50.547Z,98471.27
2019-03-21T05:51:52.469Z,98466.08
2019-03-21T05:55:54.364Z,98470.59
2019-03-21T05:59:56.362Z,98470.35
2019-03-21T06:03:58.330Z,98476.75
2019-03-21T06:08:28.594Z,98482.72
2019-03-21T06:12:30.514Z,98483.43
2019-03-21T06:16:37.645Z,98486.73
2019-03-21T06:20:58.337Z,98488.16
2019-03-21T06:25:19.821Z,98499.04
2019-03-21T06:29:21.769Z,98491.40
2019-03-21T06:33:23.653Z,98487.39
2019-03-21T06:37:28.617Z,98494.86
2019-03-21T06:41:31.507Z,98397.39
2019-03-21T06:45:33.425Z,98495.84
2019-03-21T06:49:35.351Z,98495.13
2019-03-21T06:53:37.268Z,98496.66
2019-03-21T06:57:39.189Z,98497.72
2019-03-21T07:01:41.180Z,98495.83
2019-03-21T07:05:43.103Z,98484.91
2019-03-21T07:09:45.013Z,98483.94
2019-03-21T07:13:46.939Z,98476.31
2019-03-21T07:17:48.921Z,98484.59
2019-03-21T07:21:50.832Z,98488.90
2019-03-21T07:25:52.731Z,98481.00
2019-03-21T07:29:54.635Z,98476.61
2019-03-21T07:33:56.537Z,98480.97
2019-03-21T07:37:58.481Z,98475.84
2019-03-21T07:42:01.398Z,98392.64
2019-03-21T07:46:05.038Z,98490.72
2019-03-21T07:50:13.563Z,98490.25
2019-03-21T07:54:15.472Z,98489.94
2019-03-21T07:58:17.360Z,98492.72
2019-03-21T08:02:19.279Z,98491.42
2019-03-21T08:06:21.174Z,98491.28
2019-03-21T08:10:23.158Z,98484.84
2019-03-21T08:14:25.069Z,98493.47
2019-03-21T08:18:26.989Z,98490.38
2019-03-21T08:22:28.909Z,98489.86
2019-03-21T08:26:30.875Z,98470.09
2019-03-21T08:30:38.823Z,98477.19
2019-03-21T08:34:41.315Z,98478.33
2019-03-21T08:38:43.431Z,98474.91
2019-03-21T08:42:45.344Z,98475.13
2019-03-21T08:46:47.257Z,98479.05
2019-03-21T08:50:49.143Z,98470.66
2019-03-21T08:54:51.161Z,98475.65
2019-03-21T08:58:53.118Z,98486.75
2019-03-21T09:02:55.020Z,98480.89
2019-03-21T09:06:56.939Z,98481.55
2019-03-21T09:10:58.840Z,98483.56
2019-03-21T09:15:00.752Z,98490.23
2019-03-21T09:19:02.641Z,98487.77
2019-03-21T09:23:04.541Z,98485.31
2019-03-21T09:27:06.443Z,98476.75
2019-03-21T09:31:08.337Z,98486.93
2019-03-21T09:35:12.470Z,98472.71
2019-03-21T09:39:15.056Z,98470.65
2019-03-21T09:43:16.957Z,98472.36
2019-03-21T09:47:19.838Z,98468.57
2019-03-21T09:51:30.581Z,98464.55
2019-03-21T09:55:25.416Z,98466.17
2019-03-21T09:59:27.330Z,98460.38
2019-03-21T10:03:29.301Z,98458.25
2019-03-21T10:07:31.204Z,98455.27
2019-03-21T10:11:33.089Z,98457.21
2019-03-21T10:15:34.991Z,98449.72
2019-03-21T10:19:36.899Z,98443.88
2019-03-21T10:23:38.837Z,98431.97
2019-03-21T10:27:41.237Z,98433.28
2019-03-21T10:31:43.146Z,98434.83
2019-03-21T10:35:46.134Z,98431.30
2019-03-21T10:39:48.058Z,98428.34
2019-03-21T10:43:49.994Z,98422.69
2019-03-21T10:47:51.946Z,98416.89
2019-03-21T10:51:55.278Z,98418.52
2019-03-21T10:55:57.441Z,98419.41
2019-03-21T11:00:01.579Z,98410.38
2019-03-21T11:04:02.981Z,98401.44
2019-03-21T11:08:05.689Z,98391.80
2019-03-21T11:12:07.606Z,98390.38
2019-03-21T11:16:09.519Z,98377.13
2019-03-21T11:20:14.685Z,98376.66
2019-03-21T11:24:16.599Z,98368.85
2019-03-21T11:28:18.500Z,98363.23
2019-03-21T11:32:20.409Z,98362.87
2019-03-21T11:36:22.369Z,98359.86
2019-03-21T11:40:24.249Z,98355.78
2019-03-21T11:44:26.216Z,98353.23
2019-03-21T11:48:28.124Z,98346.05
2019-03-21T11:52:30.033Z,98340.56
2019-03-21T11:56:31.975Z,98335.64
2019-03-21T12:00:43.045Z,98330.00
2019-03-21T12:04:37.488Z,98320.64
2019-03-21T12:08:39.383Z,98315.32
2019-03-21T12:12:41.351Z,98317.36
2019-03-21T12:16:43.355Z,98314.86
2019-03-21T12:20:45.267Z,98308.84
2019-03-21T12:24:47.169Z,98304.05
2019-03-21T12:28:49.090Z,98308.55
2019-03-21T12:32:51.004Z,98296.70
2019-03-21T12:36:52.911Z,98290.11
2019-03-21T12:40:55.799Z,98278.83
2019-03-21T12:44:57.723Z,98273.50
2019-03-21T12:49:00.816Z,98273.22
2019-03-21T12:53:03.971Z,98265.97
2019-03-21T12:57:05.878Z,98262.53
2019-03-21T13:01:07.807Z,98256.42
2019-03-21T13:05:15.848Z,98248.61
2019-03-21T13:09:17.750Z,98234.08
2019-03-21T13:13:19.781Z,98229.55
2019-03-21T13:17:21.689Z,98223.28
2019-03-21T13:21:25.718Z,98230.72
2019-03-21T13:25:27.224Z,98227.96
2019-03-21T13:29:29.125Z,98227.05
2019-03-21T13:33:31.111Z,98227.81
2019-03-21T13:37:33.032Z,98218.74
2019-03-21T13:41:34.948Z,98201.89
2019-03-21T13:45:38.027Z,98202.29
2019-03-21T13:49:39.953Z,98192.87
2019-03-21T13:53:41.866Z,98192.34
2019-03-21T13:57:43.820Z,98189.73
2019-03-21T14:01:45.737Z,98190.39
2019-03-21T14:05:47.634Z,98183.21
2019-03-21T14:09:49.567Z,98167.70
2019-03-21T14:13:51.481Z,98164.83
2019-03-21T14:17:53.477Z,98164.90
2019-03-21T14:21:55.485Z,98160.55
2019-03-21T14:25:57.383Z,98156.53
2019-03-21T14:30:01.489Z,98154.30
2019-03-21T14:34:03.086Z,98142.78
2019-03-21T14:38:05.007Z,98139.41
2019-03-21T14:42:06.918Z,98145.05
2019-03-21T14:46:08.818Z,98138.88
2019-03-21T14:50:16.981Z,98125.27
2019-03-21T14:54:18.930Z,98124.77
2019-03-21T14:58:20.827Z,98123.25
2019-03-21T15:02:22.747Z,98128.92
2019-03-21T15:06:25.592Z,98126.00
2019-03-21T15:10:27.582Z,98122.84
2019-03-21T15:14:31.902Z,98122.30
2019-03-21T15:18:33.110Z,98125.72
2019-03-21T15:22:35.037Z,98112.38
2019-03-21T15:26:37.004Z,98120.02
2019-03-21T15:30:38.916Z,98117.90
2019-03-21T15:34:40.834Z,98113.61
2019-03-21T15:38:42.767Z,98108.73
2019-03-21T15:42:44.959Z,98101.69
2019-03-21T15:46:46.897Z,98103.19
2019-03-21T15:50:48.799Z,98101.42
2019-03-21T15:54:50.705Z,98105.42
2019-03-21T15:58:52.621Z,98108.52
2019-03-21T16:02:54.557Z,98108.17
2019-03-21T16:06:56.441Z,98038.17
2019-03-21T16:10:58.364Z,98106.91
2019-03-21T16:15:00.360Z,98100.77
2019-03-21T16:19:02.274Z,98102.84
2019-03-21T16:23:04.436Z,98099.98
2019-03-21T16:27:06.370Z,98104.20
2019-03-21T16:31:08.283Z,98098.45
2019-03-21T16:35:11.119Z,98098.45
2019-03-21T16:39:13.032Z,98101.13
2019-03-21T16:43:14.944Z,98104.25
2019-03-21T16:47:16.846Z,98109.19
2019-03-21T16:51:19.759Z,98104.92
2019-03-21T16:55:21.683Z,98104.06
2019-03-21T16:59:23.595Z,98109.56
2019-03-21T17:03:25.773Z,98110.91
2019-03-21T17:07:27.690Z,98107.86
2019-03-21T17:11:29.653Z,98117.78
2019-03-21T17:15:31.562Z,98116.64
2019-03-21T17:19:33.539Z,98119.14
2019-03-21T17:28:16.397Z,98122.98
2019-03-21T17:32:18.327Z,98124.23
2019-03-21T17:36:20.847Z,98130.78
2019-03-21T17:40:22.845Z,98131.83
2019-03-21T17:44:25.832Z,98141.23
2019-03-21T17:48:27.728Z,98146.41
2019-03-21T17:52:29.626Z,98141.92
2019-03-21T17:56:31.554Z,98154.52
2019-03-21T18:00:34.695Z,98154.90
2019-03-21T18:04:36.673Z,98158.83
2019-03-21T18:08:38.560Z,98164.83
2019-03-21T18:12:43.726Z,98172.39
2019-03-21T18:16:45.620Z,98167.92
2019-03-21T18:20:47.503Z,98164.05
2019-03-21T18:24:54.110Z,98164.67
2019-03-21T18:28:52.999Z,98170.75
2019-03-21T18:32:55.163Z,98174.94
2019-03-21T18:36:57.050Z,98180.54
2019-03-21T18:40:58.959Z,98182.03
2019-03-21T18:45:00.952Z,98183.36
2019-03-21T18:49:02.927Z,98189.09
2019-03-21T18:53:04.950Z,98187.91
2019-03-21T18:57:06.865Z,98194.20
2019-03-21T19:01:08.782Z,98195.72
2019-03-21T19:05:10.878Z,98198.05
2019-03-21T19:09:12.759Z,98194.82
2019-03-21T19:13:14.685Z,98192.72
2019-03-21T19:17:16.593Z,98199.00
2019-03-21T19:21:18.529Z,98195.42
2019-03-21T19:25:20.720Z,98199.79
2019-03-21T19:29:22.619Z,98191.62
2019-03-21T19:33:25.759Z,98188.72
2019-03-21T19:37:27.777Z,98195.33
2019-03-21T19:41:30.670Z,98200.98
2019-03-21T19:45:32.636Z,98198.41
2019-03-21T19:49:34.537Z,98190.38
2019-03-21T19:53:36.441Z,98197.52
2019-03-21T19:57:38.497Z,98206.77
2019-03-21T20:01:40.377Z,98206.48
2019-03-21T20:05:42.289Z,98127.41
2019-03-21T20:09:44.162Z,98206.02
2019-03-21T20:13:46.056Z,98207.52
2019-03-21T20:17:48.027Z,98207.68
2019-03-21T20:21:49.934Z,98209.84
2019-03-21T20:25:52.242Z,98218.20
2019-03-21T20:29:54.135Z,98205.91
2019-03-21T20:33:56.051Z,98203.74
2019-03-21T20:37:57.931Z,98211.80
2019-03-21T20:41:59.826Z,98216.06
2019-03-21T20:46:01.716Z,98217.67
2019-03-21T20:50:13.818Z,98215.84
2019-03-21T20:54:15.703Z,98218.78
2019-03-21T20:58:17.611Z,98218.30
2019-03-21T21:02:19.492Z,98224.65
2019-03-21T21:06:21.402Z,98219.09
2019-03-21T21:10:23.342Z,98218.26
2019-03-21T21:14:25.368Z,98217.59
2019-03-21T21:18:27.262Z,98210.33
2019-03-21T21:22:29.170Z,98216.84
2019-03-21T21:26:31.060Z,98215.47
2019-03-21T21:30:33.256Z,98223.02
2019-03-21T21:34:35.134Z,98222.66
2019-03-21T21:38:37.040Z,98225.92
2019-03-21T21:42:38.921Z,98228.13
2019-03-21T21:46:40.836Z,98228.27
2019-03-21T21:50:42.710Z,98227.44
2019-03-21T21:54:44.608Z,98233.33
2019-03-21T21:58:46.509Z,98236.05
2019-03-21T22:02:48.402Z,98233.59
2019-03-21T22:06:50.294Z,98223.06
2019-03-21T22:10:52.176Z,98217.72
2019-03-21T22:14:54.074Z,98210.83
2019-03-21T22:18:55.972Z,98220.94
2019-03-21T22:22:58.954Z,98223.80
2019-03-21T22:27:01.603Z,98229.70
2019-03-21T22:31:03.490Z,98227.38
2019-03-21T22:35:06.998Z,98225.37
2019-03-21T22:39:09.866Z,98229.44
2019-03-21T22:43:11.762Z,98227.91
2019-03-21T22:47:13.651Z,98226.87
2019-03-21T22:51:15.549Z,98228.53
2019-03-21T22:55:17.476Z,98226.48
2019-03-21T22:59:19.377Z,98231.31
2019-03-21T23:03:21.345Z,98218.30
2019-03-21T23:07:23.241Z,98212.71
2019-03-21T23:11:25.161Z,98209.42
2019-03-21T23:15:27.058Z,98214.88
2019-03-21T23:19:28.986Z,98208.56
2019-03-21T23:23:30.899Z,98208.81
2019-03-21T23:27:32.779Z,98205.46
2019-03-21T23:31:35.206Z,98202.85
2019-03-21T23:35:37.136Z,98203.77
2019-03-21T23:39:39.038Z,98207.47
2019-03-21T23:43:40.916Z,98209.37
2019-03-21T23:47:42.996Z,98209.45
2019-03-21T23:51:44.895Z,98208.31
2019-03-21T23:55:46.894Z,98210.13
2019-03-21T23:59:48.804Z,98213.09
